sensor_id;sensor_type;location;lat;lon;timestamp;temperature;humidity
23669;DHT22;12011;47.422;15.018;2023-07-28T00:02:24;13.40;99.90
23669;DHT22;12011;47.422;15.018;2023-07-28T00:04:56;13.40;99.90
23669;DHT22;12011;47.422;15.018;2023-07-28T00:07:25;13.40;99.90
23669;DHT22;12011;47.422;15.018;2023-07-28T00:09:55;13.40;99.90
23669;DHT22;12011;47.422;15.018;2023-07-28T00:12:25;13.40;99.90
23669;DHT22;12011;47.422;15.018;2023-07-28T00:14:54;13.40;99.90
23669;DHT22;12011;47.422;15.018;2023-07-28T00:17:25;13.40;99.90
23669;DHT22;12011;47.422;15.018;2023-07-28T00:19:57;13.40;99.90
23669;DHT22;12011;47.422;15.018;2023-07-28T00:22:26;13.30;99.90
23669;DHT22;12011;47.422;15.018;2023-07-28T00:24:56;13.40;99.90
23669;DHT22;12011;47.422;15.018;2023-07-28T00:27:25;13.30;99.90
23669;DHT22;12011;47.422;15.018;2023-07-28T00:29:55;13.20;99.90
23669;DHT22;12011;47.422;15.018;2023-07-28T00:32:24;13.20;99.90
23669;DHT22;12011;47.422;15.018;2023-07-28T00:34:54;13.20;99.90
23669;DHT22;12011;47.422;15.018;2023-07-28T00:37:26;13.20;99.90
23669;DHT22;12011;47.422;15.018;2023-07-28T00:39:55;13.20;99.90
23669;DHT22;12011;47.422;15.018;2023-07-28T00:42:25;13.10;99.90
23669;DHT22;12011;47.422;15.018;2023-07-28T00:44:54;13.20;99.90
23669;DHT22;12011;47.422;15.018;2023-07-28T00:47:24;13.20;99.90
23669;DHT22;12011;47.422;15.018;2023-07-28T00:49:59;13.20;99.90
23669;DHT22;12011;47.422;15.018;2023-07-28T00:52:30;13.20;99.90
23669;DHT22;12011;47.422;15.018;2023-07-28T00:55:01;13.30;99.90
23669;DHT22;12011;47.422;15.018;2023-07-28T00:57:30;13.30;99.90
23669;DHT22;12011;47.422;15.018;2023-07-28T01:00:00;13.20;99.90
23669;DHT22;12011;47.422;15.018;2023-07-28T01:02:31;13.20;99.90
23669;DHT22;12011;47.422;15.018;2023-07-28T01:05:04;13.20;99.90
23669;DHT22;12011;47.422;15.018;2023-07-28T01:07:39;13.20;99.90
23669;DHT22;12011;47.422;15.018;2023-07-28T01:10:17;13.20;99.90
23669;DHT22;12011;47.422;15.018;2023-07-28T01:12:48;13.20;99.90
23669;DHT22;12011;47.422;15.018;2023-07-28T01:15:17;13.30;99.90
23669;DHT22;12011;47.422;15.018;2023-07-28T01:17:47;13.30;99.90
23669;DHT22;12011;47.422;15.018;2023-07-28T01:20:19;13.20;99.90
23669;DHT22;12011;47.422;15.018;2023-07-28T01:23:07;13.30;99.90
23669;DHT22;12011;47.422;15.018;2023-07-28T01:25:53;13.30;99.90
23669;DHT22;12011;47.422;15.018;2023-07-28T01:28:30;13.30;99.90
23669;DHT22;12011;47.422;15.018;2023-07-28T01:31:02;13.20;99.90
23669;DHT22;12011;47.422;15.018;2023-07-28T01:33:33;13.20;99.90
23669;DHT22;12011;47.422;15.018;2023-07-28T01:36:04;13.20;99.90
23669;DHT22;12011;47.422;15.018;2023-07-28T01:38:33;13.20;99.90
23669;DHT22;12011;47.422;15.018;2023-07-28T01:41:03;13.10;99.90
23669;DHT22;12011;47.422;15.018;2023-07-28T01:43:35;13.10;99.90
23669;DHT22;12011;47.422;15.018;2023-07-28T01:46:04;13.10;99.90
23669;DHT22;12011;47.422;15.018;2023-07-28T01:48:34;13.10;99.90
23669;DHT22;12011;47.422;15.018;2023-07-28T01:51:04;13.10;99.90
23669;DHT22;12011;47.422;15.018;2023-07-28T01:53:33;13.10;99.90
23669;DHT22;12011;47.422;15.018;2023-07-28T01:56:03;13.00;99.90
23669;DHT22;12011;47.422;15.018;2023-07-28T01:58:35;13.00;99.90
23669;DHT22;12011;47.422;15.018;2023-07-28T02:01:07;13.00;99.90
23669;DHT22;12011;47.422;15.018;2023-07-28T02:03:36;13.00;99.90
23669;DHT22;12011;47.422;15.018;2023-07-28T02:06:08;13.00;99.90
23669;DHT22;12011;47.422;15.018;2023-07-28T02:08:38;12.90;99.90
23669;DHT22;12011;47.422;15.018;2023-07-28T02:11:07;12.90;99.90
23669;DHT22;12011;47.422;15.018;2023-07-28T02:13:39;12.80;99.90
23669;DHT22;12011;47.422;15.018;2023-07-28T02:16:13;12.70;99.90
23669;DHT22;12011;47.422;15.018;2023-07-28T02:18:43;12.60;99.90
23669;DHT22;12011;47.422;15.018;2023-07-28T02:21:12;12.70;99.90
23669;DHT22;12011;47.422;15.018;2023-07-28T02:23:42;12.70;99.90
23669;DHT22;12011;47.422;15.018;2023-07-28T02:26:12;12.70;99.90
23669;DHT22;12011;47.422;15.018;2023-07-28T02:28:45;12.70;99.90
23669;DHT22;12011;47.422;15.018;2023-07-28T02:31:16;12.70;99.90
23669;DHT22;12011;47.422;15.018;2023-07-28T02:33:45;12.60;99.90
23669;DHT22;12011;47.422;15.018;2023-07-28T02:36:14;12.50;99.90
23669;DHT22;12011;47.422;15.018;2023-07-28T02:38:44;12.40;99.90
23669;DHT22;12011;47.422;15.018;2023-07-28T02:41:14;12.40;99.90
23669;DHT22;12011;47.422;15.018;2023-07-28T02:43:47;12.30;99.90
23669;DHT22;12011;47.422;15.018;2023-07-28T02:46:17;12.30;99.90
23669;DHT22;12011;47.422;15.018;2023-07-28T02:48:46;12.10;99.90
23669;DHT22;12011;47.422;15.018;2023-07-28T02:51:16;12.20;99.90
23669;DHT22;12011;47.422;15.018;2023-07-28T02:53:46;12.00;99.90
23669;DHT22;12011;47.422;15.018;2023-07-28T02:56:16;12.00;99.90
23669;DHT22;12011;47.422;15.018;2023-07-28T02:58:49;12.10;99.90
23669;DHT22;12011;47.422;15.018;2023-07-28T03:01:19;11.90;99.90
23669;DHT22;12011;47.422;15.018;2023-07-28T03:03:49;11.90;99.90
23669;DHT22;12011;47.422;15.018;2023-07-28T03:06:18;11.80;99.90
23669;DHT22;12011;47.422;15.018;2023-07-28T03:08:48;11.90;99.90
23669;DHT22;12011;47.422;15.018;2023-07-28T03:11:36;11.80;99.90
23669;DHT22;12011;47.422;15.018;2023-07-28T03:14:08;11.50;99.90
23669;DHT22;12011;47.422;15.018;2023-07-28T03:16:40;11.50;99.90
23669;DHT22;12011;47.422;15.018;2023-07-28T03:19:09;11.40;99.90
23669;DHT22;12011;47.422;15.018;2023-07-28T03:21:39;11.40;99.90
23669;DHT22;12011;47.422;15.018;2023-07-28T03:24:08;11.40;99.90
23669;DHT22;12011;47.422;15.018;2023-07-28T03:26:38;11.40;99.90
23669;DHT22;12011;47.422;15.018;2023-07-28T03:29:10;11.30;99.90
23669;DHT22;12011;47.422;15.018;2023-07-28T03:31:45;11.20;99.90
23669;DHT22;12011;47.422;15.018;2023-07-28T03:34:17;11.20;99.90
23669;DHT22;12011;47.422;15.018;2023-07-28T03:36:47;11.10;99.90
23669;DHT22;12011;47.422;15.018;2023-07-28T03:39:16;11.20;99.90
23669;DHT22;12011;47.422;15.018;2023-07-28T03:41:48;11.10;99.90
23669;DHT22;12011;47.422;15.018;2023-07-28T03:44:21;11.10;99.90
23669;DHT22;12011;47.422;15.018;2023-07-28T03:46:50;11.20;99.90
23669;DHT22;12011;47.422;15.018;2023-07-28T03:49:20;11.20;99.90
23669;DHT22;12011;47.422;15.018;2023-07-28T03:51:50;11.10;99.90
23669;DHT22;12011;47.422;15.018;2023-07-28T03:54:19;11.00;99.90
23669;DHT22;12011;47.422;15.018;2023-07-28T03:56:53;11.00;99.90
23669;DHT22;12011;47.422;15.018;2023-07-28T03:59:25;11.00;99.90
23669;DHT22;12011;47.422;15.018;2023-07-28T04:01:54;11.00;99.90
23669;DHT22;12011;47.422;15.018;2023-07-28T04:04:24;11.10;99.90
23669;DHT22;12011;47.422;15.018;2023-07-28T04:06:54;11.00;99.90
23669;DHT22;12011;47.422;15.018;2023-07-28T04:09:24;11.10;99.90
23669;DHT22;12011;47.422;15.018;2023-07-28T04:11:53;11.20;99.90
23669;DHT22;12011;47.422;15.018;2023-07-28T04:14:25;11.20;99.90
23669;DHT22;12011;47.422;15.018;2023-07-28T04:16:55;11.20;99.90
23669;DHT22;12011;47.422;15.018;2023-07-28T04:19:24;11.30;99.90
23669;DHT22;12011;47.422;15.018;2023-07-28T04:21:55;11.30;99.90
23669;DHT22;12011;47.422;15.018;2023-07-28T04:24:27;11.80;99.90
23669;DHT22;12011;47.422;15.018;2023-07-28T04:26:57;12.50;99.90
23669;DHT22;12011;47.422;15.018;2023-07-28T04:29:30;13.30;99.90
23669;DHT22;12011;47.422;15.018;2023-07-28T04:32:00;14.00;99.90
23669;DHT22;12011;47.422;15.018;2023-07-28T04:34:34;14.60;99.90
23669;DHT22;12011;47.422;15.018;2023-07-28T04:37:11;15.10;99.90
23669;DHT22;12011;47.422;15.018;2023-07-28T04:39:56;15.70;99.90
23669;DHT22;12011;47.422;15.018;2023-07-28T04:42:31;16.30;99.80
23669;DHT22;12011;47.422;15.018;2023-07-28T04:45:07;16.60;97.10
23669;DHT22;12011;47.422;15.018;2023-07-28T04:47:38;17.00;97.60
23669;DHT22;12011;47.422;15.018;2023-07-28T04:50:09;17.50;95.10
23669;DHT22;12011;47.422;15.018;2023-07-28T04:53:05;17.90;92.20
23669;DHT22;12011;47.422;15.018;2023-07-28T04:55:53;18.30;91.70
23669;DHT22;12011;47.422;15.018;2023-07-28T04:58:23;18.60;91.20
23669;DHT22;12011;47.422;15.018;2023-07-28T05:00:56;18.70;90.00
23669;DHT22;12011;47.422;15.018;2023-07-28T05:03:26;19.20;85.80
23669;DHT22;12011;47.422;15.018;2023-07-28T05:05:58;19.40;87.70
23669;DHT22;12011;47.422;15.018;2023-07-28T05:08:28;19.90;80.40
23669;DHT22;12011;47.422;15.018;2023-07-28T05:10:58;20.30;77.60
23669;DHT22;12011;47.422;15.018;2023-07-28T05:13:30;20.50;75.90
23669;DHT22;12011;47.422;15.018;2023-07-28T05:16:02;20.40;75.40
23669;DHT22;12011;47.422;15.018;2023-07-28T05:18:51;20.60;71.30
23669;DHT22;12011;47.422;15.018;2023-07-28T05:21:55;20.40;70.90
23669;DHT22;12011;47.422;15.018;2023-07-28T05:24:48;20.40;72.00
23669;DHT22;12011;47.422;15.018;2023-07-28T05:27:17;20.50;73.00
23669;DHT22;12011;47.422;15.018;2023-07-28T05:29:48;21.60;69.80
23669;DHT22;12011;47.422;15.018;2023-07-28T05:32:20;22.10;66.20
23669;DHT22;12011;47.422;15.018;2023-07-28T05:35:16;22.40;63.20
23669;DHT22;12011;47.422;15.018;2023-07-28T05:37:46;22.40;65.10
23669;DHT22;12011;47.422;15.018;2023-07-28T05:40:16;22.60;64.90
23669;DHT22;12011;47.422;15.018;2023-07-28T05:42:46;22.80;63.00
23669;DHT22;12011;47.422;15.018;2023-07-28T05:45:16;22.90;59.20
23669;DHT22;12011;47.422;15.018;2023-07-28T05:47:48;22.40;60.30
23669;DHT22;12011;47.422;15.018;2023-07-28T05:50:20;22.70;62.90
23669;DHT22;12011;47.422;15.018;2023-07-28T05:52:49;22.40;61.80
23669;DHT22;12011;47.422;15.018;2023-07-28T05:55:19;22.50;64.00
23669;DHT22;12011;47.422;15.018;2023-07-28T05:57:48;22.60;62.90
23669;DHT22;12011;47.422;15.018;2023-07-28T06:00:18;22.70;60.20
23669;DHT22;12011;47.422;15.018;2023-07-28T06:02:51;22.80;63.50
23669;DHT22;12011;47.422;15.018;2023-07-28T06:05:50;23.20;57.20
23669;DHT22;12011;47.422;15.018;2023-07-28T06:08:21;23.30;58.70
23669;DHT22;12011;47.422;15.018;2023-07-28T06:10:50;23.40;58.00
23669;DHT22;12011;47.422;15.018;2023-07-28T06:13:20;23.00;56.70
23669;DHT22;12011;47.422;15.018;2023-07-28T06:15:49;22.80;55.90
23669;DHT22;12011;47.422;15.018;2023-07-28T06:18:21;22.60;59.20
23669;DHT22;12011;47.422;15.018;2023-07-28T06:21:00;22.60;59.50
23669;DHT22;12011;47.422;15.018;2023-07-28T06:23:29;23.70;59.50
23669;DHT22;12011;47.422;15.018;2023-07-28T06:25:59;23.70;54.50
23669;DHT22;12011;47.422;15.018;2023-07-28T06:28:28;23.70;53.00
23669;DHT22;12011;47.422;15.018;2023-07-28T06:30:58;23.30;53.10
23669;DHT22;12011;47.422;15.018;2023-07-28T06:33:31;24.20;55.10
23669;DHT22;12011;47.422;15.018;2023-07-28T06:36:00;24.70;55.80
23669;DHT22;12011;47.422;15.018;2023-07-28T06:38:30;24.20;51.00
23669;DHT22;12011;47.422;15.018;2023-07-28T06:40:59;24.70;51.60
23669;DHT22;12011;47.422;15.018;2023-07-28T06:43:29;24.60;49.90
23669;DHT22;12011;47.422;15.018;2023-07-28T06:46:04;24.40;50.60
23669;DHT22;12011;47.422;15.018;2023-07-28T06:48:36;24.00;51.90
23669;DHT22;12011;47.422;15.018;2023-07-28T06:51:07;23.80;52.80
23669;DHT22;12011;47.422;15.018;2023-07-28T06:53:36;23.80;52.30
23669;DHT22;12011;47.422;15.018;2023-07-28T06:56:07;24.20;51.40
23669;DHT22;12011;47.422;15.018;2023-07-28T06:58:36;23.90;52.40
23669;DHT22;12011;47.422;15.018;2023-07-28T07:01:06;24.00;51.80
23669;DHT22;12011;47.422;15.018;2023-07-28T07:03:39;24.50;50.80
23669;DHT22;12011;47.422;15.018;2023-07-28T07:06:09;24.90;49.00
23669;DHT22;12011;47.422;15.018;2023-07-28T07:08:38;24.60;50.70
23669;DHT22;12011;47.422;15.018;2023-07-28T07:11:08;24.40;50.50
23669;DHT22;12011;47.422;15.018;2023-07-28T07:13:37;25.00;51.10
23669;DHT22;12011;47.422;15.018;2023-07-28T07:16:13;24.80;50.30
23669;DHT22;12011;47.422;15.018;2023-07-28T07:18:45;24.60;52.40
23669;DHT22;12011;47.422;15.018;2023-07-28T07:21:15;24.60;51.60
23669;DHT22;12011;47.422;15.018;2023-07-28T07:23:44;25.10;50.40
23669;DHT22;12011;47.422;15.018;2023-07-28T07:26:25;25.60;51.80
23669;DHT22;12011;47.422;15.018;2023-07-28T07:28:54;26.00;51.50
23669;DHT22;12011;47.422;15.018;2023-07-28T07:31:24;26.80;50.10
23669;DHT22;12011;47.422;15.018;2023-07-28T07:33:56;27.90;47.30
23669;DHT22;12011;47.422;15.018;2023-07-28T07:36:26;27.90;44.30
23669;DHT22;12011;47.422;15.018;2023-07-28T07:38:55;28.80;44.60
23669;DHT22;12011;47.422;15.018;2023-07-28T07:41:25;28.50;44.60
23669;DHT22;12011;47.422;15.018;2023-07-28T07:43:55;27.70;43.20
23669;DHT22;12011;47.422;15.018;2023-07-28T07:46:25;27.30;44.30
23669;DHT22;12011;47.422;15.018;2023-07-28T07:48:57;27.50;47.30
23669;DHT22;12011;47.422;15.018;2023-07-28T07:51:26;27.40;47.00
23669;DHT22;12011;47.422;15.018;2023-07-28T07:53:56;27.50;45.50
23669;DHT22;12011;47.422;15.018;2023-07-28T07:56:27;26.90;45.60
23669;DHT22;12011;47.422;15.018;2023-07-28T07:58:56;26.70;47.10
23669;DHT22;12011;47.422;15.018;2023-07-28T08:01:26;27.40;47.00
23669;DHT22;12011;47.422;15.018;2023-07-28T08:03:58;27.60;46.10
23669;DHT22;12011;47.422;15.018;2023-07-28T08:06:27;27.70;44.30
23669;DHT22;12011;47.422;15.018;2023-07-28T08:08:58;27.40;46.60
23669;DHT22;12011;47.422;15.018;2023-07-28T08:11:28;26.90;48.00
23669;DHT22;12011;47.422;15.018;2023-07-28T08:13:57;27.90;47.00
23669;DHT22;12011;47.422;15.018;2023-07-28T08:16:27;28.70;48.00
23669;DHT22;12011;47.422;15.018;2023-07-28T08:18:59;28.90;45.00
23669;DHT22;12011;47.422;15.018;2023-07-28T08:21:28;29.80;45.30
23669;DHT22;12011;47.422;15.018;2023-07-28T08:24:02;28.80;43.30
23669;DHT22;12011;47.422;15.018;2023-07-28T08:26:32;28.40;44.20
23669;DHT22;12011;47.422;15.018;2023-07-28T08:29:01;28.30;45.40
23669;DHT22;12011;47.422;15.018;2023-07-28T08:31:31;29.10;43.80
23669;DHT22;12011;47.422;15.018;2023-07-28T08:34:03;29.60;44.20
23669;DHT22;12011;47.422;15.018;2023-07-28T08:36:33;29.20;45.30
23669;DHT22;12011;47.422;15.018;2023-07-28T08:39:03;29.90;47.20
23669;DHT22;12011;47.422;15.018;2023-07-28T08:41:32;30.40;42.20
23669;DHT22;12011;47.422;15.018;2023-07-28T08:44:03;30.00;40.70
23669;DHT22;12011;47.422;15.018;2023-07-28T08:46:33;29.90;41.20
23669;DHT22;12011;47.422;15.018;2023-07-28T08:49:06;29.30;42.10
23669;DHT22;12011;47.422;15.018;2023-07-28T08:51:41;29.60;45.80
23669;DHT22;12011;47.422;15.018;2023-07-28T08:54:11;28.90;42.10
23669;DHT22;12011;47.422;15.018;2023-07-28T08:56:43;27.70;46.80
23669;DHT22;12011;47.422;15.018;2023-07-28T08:59:12;27.20;45.70
23669;DHT22;12011;47.422;15.018;2023-07-28T09:01:52;27.00;49.40
23669;DHT22;12011;47.422;15.018;2023-07-28T09:04:24;26.70;48.30
23669;DHT22;12011;47.422;15.018;2023-07-28T09:06:54;27.60;48.00
23669;DHT22;12011;47.422;15.018;2023-07-28T09:09:23;28.10;48.20
23669;DHT22;12011;47.422;15.018;2023-07-28T09:11:54;29.00;45.80
23669;DHT22;12011;47.422;15.018;2023-07-28T09:14:24;30.20;42.70
23669;DHT22;12011;47.422;15.018;2023-07-28T09:16:53;30.70;42.50
23669;DHT22;12011;47.422;15.018;2023-07-28T09:19:25;31.20;44.20
23669;DHT22;12011;47.422;15.018;2023-07-28T09:21:59;31.30;39.90
23669;DHT22;12011;47.422;15.018;2023-07-28T09:24:32;31.40;39.50
23669;DHT22;12011;47.422;15.018;2023-07-28T09:27:03;30.90;40.10
23669;DHT22;12011;47.422;15.018;2023-07-28T09:29:32;31.30;41.60
23669;DHT22;12011;47.422;15.018;2023-07-28T09:32:04;31.10;42.20
23669;DHT22;12011;47.422;15.018;2023-07-28T09:34:37;30.10;39.00
23669;DHT22;12011;47.422;15.018;2023-07-28T09:37:09;30.20;42.50
23669;DHT22;12011;47.422;15.018;2023-07-28T09:39:40;30.50;41.70
23669;DHT22;12011;47.422;15.018;2023-07-28T09:42:11;30.70;41.00
23669;DHT22;12011;47.422;15.018;2023-07-28T09:44:42;30.80;42.00
23669;DHT22;12011;47.422;15.018;2023-07-28T09:47:13;30.10;41.60
23669;DHT22;12011;47.422;15.018;2023-07-28T09:49:46;29.90;43.20
23669;DHT22;12011;47.422;15.018;2023-07-28T09:52:18;30.50;44.70
23669;DHT22;12011;47.422;15.018;2023-07-28T09:54:51;31.50;41.90
23669;DHT22;12011;47.422;15.018;2023-07-28T09:57:26;31.40;41.10
23669;DHT22;12011;47.422;15.018;2023-07-28T09:59:57;30.70;41.50
23669;DHT22;12011;47.422;15.018;2023-07-28T10:02:39;30.00;42.10
23669;DHT22;12011;47.422;15.018;2023-07-28T10:05:11;29.50;44.10
23669;DHT22;12011;47.422;15.018;2023-07-28T10:07:43;28.30;46.50
23669;DHT22;12011;47.422;15.018;2023-07-28T10:10:15;29.00;47.00
23669;DHT22;12011;47.422;15.018;2023-07-28T10:12:49;30.10;46.50
23669;DHT22;12011;47.422;15.018;2023-07-28T10:15:20;30.90;45.90
23669;DHT22;12011;47.422;15.018;2023-07-28T10:17:53;31.20;43.30
23669;DHT22;12011;47.422;15.018;2023-07-28T10:20:31;31.60;44.30
23669;DHT22;12011;47.422;15.018;2023-07-28T10:23:04;31.50;45.30
23669;DHT22;12011;47.422;15.018;2023-07-28T10:25:36;30.60;41.40
23669;DHT22;12011;47.422;15.018;2023-07-28T10:28:08;30.20;42.50
23669;DHT22;12011;47.422;15.018;2023-07-28T10:30:55;30.20;45.50
23669;DHT22;12011;47.422;15.018;2023-07-28T10:33:30;29.50;44.10
23669;DHT22;12011;47.422;15.018;2023-07-28T10:36:13;29.20;43.50
23669;DHT22;12011;47.422;15.018;2023-07-28T10:38:43;28.80;46.00
23669;DHT22;12011;47.422;15.018;2023-07-28T10:41:15;29.20;48.10
23669;DHT22;12011;47.422;15.018;2023-07-28T10:43:46;29.10;47.80
23669;DHT22;12011;47.422;15.018;2023-07-28T10:46:18;29.50;46.90
23669;DHT22;12011;47.422;15.018;2023-07-28T10:48:50;29.80;47.30
23669;DHT22;12011;47.422;15.018;2023-07-28T10:51:24;29.70;46.20
23669;DHT22;12011;47.422;15.018;2023-07-28T10:53:57;30.70;49.00
23669;DHT22;12011;47.422;15.018;2023-07-28T10:56:28;30.50;43.40
23669;DHT22;12011;47.422;15.018;2023-07-28T10:58:58;30.00;44.50
23669;DHT22;12011;47.422;15.018;2023-07-28T11:01:33;29.70;47.40
23669;DHT22;12011;47.422;15.018;2023-07-28T11:04:07;29.40;48.20
23669;DHT22;12011;47.422;15.018;2023-07-28T11:06:42;29.20;50.40
23669;DHT22;12011;47.422;15.018;2023-07-28T11:09:13;28.90;50.10
23669;DHT22;12011;47.422;15.018;2023-07-28T11:11:45;29.20;50.20
23669;DHT22;12011;47.422;15.018;2023-07-28T11:14:17;29.20;46.80
23669;DHT22;12011;47.422;15.018;2023-07-28T11:16:47;29.00;50.80
23669;DHT22;12011;47.422;15.018;2023-07-28T11:19:16;29.10;47.60
23669;DHT22;12011;47.422;15.018;2023-07-28T11:21:54;28.90;46.00
23669;DHT22;12011;47.422;15.018;2023-07-28T11:24:24;28.80;46.80
23669;DHT22;12011;47.422;15.018;2023-07-28T11:26:57;29.00;50.40
23669;DHT22;12011;47.422;15.018;2023-07-28T11:29:28;29.30;51.50
23669;DHT22;12011;47.422;15.018;2023-07-28T11:31:58;28.80;48.00
23669;DHT22;12011;47.422;15.018;2023-07-28T11:34:28;28.80;51.50
23669;DHT22;12011;47.422;15.018;2023-07-28T11:37:00;28.80;48.10
23669;DHT22;12011;47.422;15.018;2023-07-28T11:39:32;29.00;47.70
23669;DHT22;12011;47.422;15.018;2023-07-28T11:42:03;30.00;45.30
23669;DHT22;12011;47.422;15.018;2023-07-28T11:44:33;29.20;44.70
23669;DHT22;12011;47.422;15.018;2023-07-28T11:47:05;28.90;42.80
23669;DHT22;12011;47.422;15.018;2023-07-28T11:49:46;29.10;45.30
23669;DHT22;12011;47.422;15.018;2023-07-28T11:52:20;28.90;46.10
23669;DHT22;12011;47.422;15.018;2023-07-28T11:54:52;29.00;41.00
23669;DHT22;12011;47.422;15.018;2023-07-28T11:57:22;29.00;41.80
23669;DHT22;12011;47.422;15.018;2023-07-28T11:59:51;28.90;44.00
23669;DHT22;12011;47.422;15.018;2023-07-28T12:02:25;29.70;42.50
23669;DHT22;12011;47.422;15.018;2023-07-28T12:04:56;29.80;39.50
23669;DHT22;12011;47.422;15.018;2023-07-28T12:07:33;30.30;39.70
23669;DHT22;12011;47.422;15.018;2023-07-28T12:10:04;30.40;42.80
23669;DHT22;12011;47.422;15.018;2023-07-28T12:12:40;30.80;39.90
23669;DHT22;12011;47.422;15.018;2023-07-28T12:15:22;30.60;37.20
23669;DHT22;12011;47.422;15.018;2023-07-28T12:18:05;30.70;40.70
23669;DHT22;12011;47.422;15.018;2023-07-28T12:20:37;30.70;41.90
23669;DHT22;12011;47.422;15.018;2023-07-28T12:23:10;30.70;38.90
23669;DHT22;12011;47.422;15.018;2023-07-28T12:25:40;31.10;39.20
23669;DHT22;12011;47.422;15.018;2023-07-28T12:28:11;30.70;40.10
23669;DHT22;12011;47.422;15.018;2023-07-28T12:30:40;30.50;37.50
23669;DHT22;12011;47.422;15.018;2023-07-28T12:33:10;30.40;39.10
23669;DHT22;12011;47.422;15.018;2023-07-28T12:35:40;30.50;41.20
23669;DHT22;12011;47.422;15.018;2023-07-28T12:38:12;30.40;38.00
23669;DHT22;12011;47.422;15.018;2023-07-28T12:40:41;30.60;42.00
23669;DHT22;12011;47.422;15.018;2023-07-28T12:43:11;30.70;40.30
23669;DHT22;12011;47.422;15.018;2023-07-28T12:45:41;30.70;39.80
23669;DHT22;12011;47.422;15.018;2023-07-28T12:48:10;30.90;40.40
23669;DHT22;12011;47.422;15.018;2023-07-28T12:50:40;30.90;37.70
23669;DHT22;12011;47.422;15.018;2023-07-28T12:53:12;30.90;39.90
23669;DHT22;12011;47.422;15.018;2023-07-28T12:55:41;30.90;40.40
23669;DHT22;12011;47.422;15.018;2023-07-28T12:58:11;31.10;40.50
23669;DHT22;12011;47.422;15.018;2023-07-28T13:00:41;30.90;39.60
23669;DHT22;12011;47.422;15.018;2023-07-28T13:03:10;30.90;39.00
23669;DHT22;12011;47.422;15.018;2023-07-28T13:05:40;31.30;38.40
23669;DHT22;12011;47.422;15.018;2023-07-28T13:08:12;31.30;38.30
23669;DHT22;12011;47.422;15.018;2023-07-28T13:10:42;31.10;38.10
23669;DHT22;12011;47.422;15.018;2023-07-28T13:13:11;31.20;39.40
23669;DHT22;12011;47.422;15.018;2023-07-28T13:15:41;31.20;38.00
23669;DHT22;12011;47.422;15.018;2023-07-28T13:18:11;30.90;36.00
23669;DHT22;12011;47.422;15.018;2023-07-28T13:20:40;30.70;37.40
23669;DHT22;12011;47.422;15.018;2023-07-28T13:23:12;30.80;40.40
23669;DHT22;12011;47.422;15.018;2023-07-28T13:25:42;30.80;37.00
23669;DHT22;12011;47.422;15.018;2023-07-28T13:28:11;30.20;35.70
23669;DHT22;12011;47.422;15.018;2023-07-28T13:30:41;30.40;38.30
23669;DHT22;12011;47.422;15.018;2023-07-28T13:33:11;30.70;39.00
23669;DHT22;12011;47.422;15.018;2023-07-28T13:35:40;30.50;36.40
23669;DHT22;12011;47.422;15.018;2023-07-28T13:38:14;29.90;39.90
23669;DHT22;12011;47.422;15.018;2023-07-28T13:40:44;29.50;40.10
23669;DHT22;12011;47.422;15.018;2023-07-28T13:43:13;30.10;41.70
23669;DHT22;12011;47.422;15.018;2023-07-28T13:45:43;30.40;35.60
23669;DHT22;12011;47.422;15.018;2023-07-28T13:48:12;30.70;37.40
23669;DHT22;12011;47.422;15.018;2023-07-28T13:50:42;30.30;39.40
23669;DHT22;12011;47.422;15.018;2023-07-28T13:53:14;30.00;37.50
23669;DHT22;12011;47.422;15.018;2023-07-28T13:55:44;29.80;40.00
23669;DHT22;12011;47.422;15.018;2023-07-28T13:58:13;29.20;37.20
23669;DHT22;12011;47.422;15.018;2023-07-28T14:00:43;28.60;37.30
23669;DHT22;12011;47.422;15.018;2023-07-28T14:03:13;28.70;42.20
23669;DHT22;12011;47.422;15.018;2023-07-28T14:05:42;29.00;39.90
23669;DHT22;12011;47.422;15.018;2023-07-28T14:08:15;29.60;40.50
23669;DHT22;12011;47.422;15.018;2023-07-28T14:10:45;30.10;42.20
23669;DHT22;12011;47.422;15.018;2023-07-28T14:13:15;29.90;39.70
23669;DHT22;12011;47.422;15.018;2023-07-28T14:15:45;30.60;40.00
23669;DHT22;12011;47.422;15.018;2023-07-28T14:18:15;30.60;38.60
23669;DHT22;12011;47.422;15.018;2023-07-28T14:20:44;30.20;41.20
23669;DHT22;12011;47.422;15.018;2023-07-28T14:23:24;29.70;40.50
23669;DHT22;12011;47.422;15.018;2023-07-28T14:25:55;28.70;41.40
23669;DHT22;12011;47.422;15.018;2023-07-28T14:28:24;28.50;42.00
23669;DHT22;12011;47.422;15.018;2023-07-28T14:30:54;28.40;42.50
23669;DHT22;12011;47.422;15.018;2023-07-28T14:33:24;28.60;41.40
23669;DHT22;12011;47.422;15.018;2023-07-28T14:35:53;28.60;42.90
23669;DHT22;12011;47.422;15.018;2023-07-28T14:38:25;28.40;42.00
23669;DHT22;12011;47.422;15.018;2023-07-28T14:40:55;28.20;44.70
23669;DHT22;12011;47.422;15.018;2023-07-28T14:43:25;28.00;47.70
23669;DHT22;12011;47.422;15.018;2023-07-28T14:45:54;27.90;46.30
23669;DHT22;12011;47.422;15.018;2023-07-28T14:48:24;27.70;49.80
23669;DHT22;12011;47.422;15.018;2023-07-28T14:50:53;27.60;46.20
23669;DHT22;12011;47.422;15.018;2023-07-28T14:53:40;27.30;50.50
23669;DHT22;12011;47.422;15.018;2023-07-28T14:56:11;27.60;49.70
23669;DHT22;12011;47.422;15.018;2023-07-28T14:58:41;27.50;47.40
23669;DHT22;12011;47.422;15.018;2023-07-28T15:01:11;27.60;49.20
23669;DHT22;12011;47.422;15.018;2023-07-28T15:03:46;27.40;46.30
23669;DHT22;12011;47.422;15.018;2023-07-28T15:06:19;27.50;48.00
23669;DHT22;12011;47.422;15.018;2023-07-28T15:08:52;27.60;47.30
23669;DHT22;12011;47.422;15.018;2023-07-28T15:11:21;27.80;46.30
23669;DHT22;12011;47.422;15.018;2023-07-28T15:13:50;27.90;47.10
23669;DHT22;12011;47.422;15.018;2023-07-28T15:16:20;27.50;44.90
23669;DHT22;12011;47.422;15.018;2023-07-28T15:18:49;27.40;47.40
23669;DHT22;12011;47.422;15.018;2023-07-28T15:21:20;27.40;46.10
23669;DHT22;12011;47.422;15.018;2023-07-28T15:23:56;27.30;45.60
23669;DHT22;12011;47.422;15.018;2023-07-28T15:26:25;26.60;47.20
23669;DHT22;12011;47.422;15.018;2023-07-28T15:28:56;26.50;47.10
23669;DHT22;12011;47.422;15.018;2023-07-28T15:31:27;26.40;47.90
23669;DHT22;12011;47.422;15.018;2023-07-28T15:33:56;26.50;51.20
23669;DHT22;12011;47.422;15.018;2023-07-28T15:36:26;26.70;49.70
23669;DHT22;12011;47.422;15.018;2023-07-28T15:38:58;26.80;48.60
23669;DHT22;12011;47.422;15.018;2023-07-28T15:41:27;26.60;47.90
23669;DHT22;12011;47.422;15.018;2023-07-28T15:44:03;26.60;51.40